createdAt,value
2022-09-07T00:00:50.426Z,8.01
2022-09-07T00:02:53.177Z,8.01
2022-09-07T00:04:55.824Z,8.00
2022-09-07T00:06:58.503Z,7.99
2022-09-07T00:09:02.725Z,7.98
2022-09-07T00:11:08.898Z,7.91
2022-09-07T00:13:11.556Z,7.93
2022-09-07T00:15:14.415Z,7.93
2022-09-07T00:17:17.094Z,7.89
2022-09-07T00:19:19.768Z,7.93
2022-09-07T00:21:22.508Z,7.92
2022-09-07T00:23:25.361Z,7.88
2022-09-07T00:25:30.825Z,7.84
2022-09-07T00:27:34.625Z,7.87
2022-09-07T00:29:37.400Z,7.89
2022-09-07T00:31:40.133Z,7.91
2022-09-07T00:33:44.527Z,7.91
2022-09-07T00:35:47.679Z,7.91
2022-09-07T00:37:50.394Z,7.93
2022-09-07T00:39:53.170Z,7.94
2022-09-07T00:41:55.923Z,7.92
2022-09-07T00:44:19.648Z,7.93
2022-09-07T00:46:30.312Z,7.94
2022-09-07T00:49:13.347Z,7.89
2022-09-07T00:51:21.887Z,7.88
2022-09-07T00:53:30.958Z,7.86
2022-09-07T00:55:36.448Z,7.88
2022-09-07T00:57:43.584Z,7.89
2022-09-07T00:59:50.300Z,7.91
2022-09-07T01:01:53.710Z,7.91
2022-09-07T01:03:59.749Z,7.94
2022-09-07T01:06:25.382Z,7.96
2022-09-07T01:08:29.710Z,7.97
2022-09-07T01:10:33.804Z,7.96
2022-09-07T01:12:36.443Z,7.93
2022-09-07T01:14:47.204Z,7.94
2022-09-07T01:17:25.329Z,7.94
2022-09-07T01:19:52.486Z,7.95
2022-09-07T01:22:13.089Z,7.96
2022-09-07T01:24:43.259Z,7.92
2022-09-07T01:26:51.977Z,7.91
2022-09-07T01:29:19.927Z,7.89
2022-09-07T01:31:43.082Z,7.87
2022-09-07T01:34:04.523Z,7.84
2022-09-07T01:36:12.806Z,7.83
2022-09-07T01:38:22.068Z,7.78
2022-09-07T01:40:40.275Z,7.77
2022-09-07T01:42:58.016Z,7.76
2022-09-07T01:45:02.837Z,7.76
2022-09-07T01:47:17.849Z,7.73
2022-09-07T01:49:34.031Z,7.72
2022-09-07T01:51:42.013Z,7.73
2022-09-07T01:53:54.533Z,7.75
2022-09-07T01:56:03.734Z,7.78
2022-09-07T01:58:35.757Z,7.79
2022-09-07T02:00:43.329Z,7.78
2022-09-07T02:03:00.569Z,7.71
2022-09-07T02:05:28.575Z,7.80
2022-09-07T02:07:40.869Z,7.85
2022-09-07T02:10:23.635Z,7.83
2022-09-07T02:12:44.148Z,7.89
2022-09-07T02:14:52.909Z,7.89
2022-09-07T02:17:01.661Z,7.90
2022-09-07T02:19:15.355Z,7.83
2022-09-07T02:21:25.591Z,7.90
2022-09-07T02:23:33.288Z,7.90
2022-09-07T02:26:03.225Z,7.93
2022-09-07T02:28:10.968Z,7.92
2022-09-07T02:30:14.026Z,7.95
2022-09-07T02:32:16.720Z,7.96
2022-09-07T02:34:19.678Z,8.01
2022-09-07T02:36:26.618Z,7.95
2022-09-07T02:38:29.580Z,7.99
2022-09-07T02:40:32.793Z,8.03
2022-09-07T02:42:36.966Z,8.03
2022-09-07T02:44:42.678Z,8.01
2022-09-07T02:46:54.310Z,8.08
2022-09-07T02:49:13.595Z,8.08
2022-09-07T02:51:24.414Z,8.08
2022-09-07T02:53:38.609Z,8.12
2022-09-07T02:55:58.335Z,8.19
2022-09-07T02:58:39.685Z,8.16
2022-09-07T03:00:59.902Z,8.17
2022-09-07T03:03:13.314Z,8.19
2022-09-07T03:05:27.832Z,8.26
2022-09-07T03:07:38.976Z,8.31
2022-09-07T03:09:47.599Z,8.35
2022-09-07T03:11:51.053Z,8.36
2022-09-07T03:14:11.009Z,8.38
2022-09-07T03:16:16.565Z,8.38
2022-09-07T03:18:19.668Z,8.42
2022-09-07T03:20:23.366Z,8.46
2022-09-07T03:22:26.216Z,8.51
2022-09-07T03:24:28.994Z,8.55
2022-09-07T03:26:31.611Z,8.58
2022-09-07T03:28:34.265Z,8.61
2022-09-07T03:30:37.079Z,8.64
2022-09-07T03:32:40.113Z,8.67
2022-09-07T03:34:42.894Z,8.70
2022-09-07T03:36:45.545Z,8.66
2022-09-07T03:38:48.298Z,8.72
2022-09-07T03:41:06.198Z,8.75
2022-09-07T03:43:08.869Z,8.74
2022-09-07T03:45:11.676Z,8.76
2022-09-07T03:47:14.572Z,8.80
2022-09-07T03:49:17.612Z,8.78
2022-09-07T03:51:20.390Z,8.79
2022-09-07T03:53:23.212Z,8.82
2022-09-07T03:55:25.875Z,8.83
2022-09-07T03:57:28.504Z,8.82
2022-09-07T03:59:31.268Z,8.89
2022-09-07T04:01:33.941Z,8.89
2022-09-07T04:03:37.661Z,8.96
2022-09-07T04:05:40.333Z,8.97
2022-09-07T04:07:42.953Z,9.00
2022-09-07T04:09:45.554Z,9.05
2022-09-07T04:11:48.358Z,9.05
2022-09-07T04:13:51.027Z,9.13
2022-09-07T04:15:54.270Z,9.14
2022-09-07T04:17:57.063Z,9.18
2022-09-07T04:19:59.877Z,9.20
2022-09-07T04:22:02.538Z,9.21
2022-09-07T04:24:05.742Z,9.32
2022-09-07T04:26:15.110Z,9.34
2022-09-07T04:28:19.631Z,9.37
2022-09-07T04:30:22.302Z,9.37
2022-09-07T04:32:24.964Z,9.42
2022-09-07T04:34:27.755Z,9.42
2022-09-07T04:36:30.436Z,9.44
2022-09-07T04:38:33.134Z,9.48
2022-09-07T04:40:36.262Z,9.54
2022-09-07T04:42:38.844Z,9.57
2022-09-07T04:44:41.590Z,9.58
2022-09-07T04:46:44.200Z,9.56
2022-09-07T04:48:50.781Z,9.58
2022-09-07T04:50:53.523Z,9.65
2022-09-07T04:52:56.101Z,9.72
2022-09-07T04:54:58.744Z,9.73
2022-09-07T04:57:01.441Z,9.77
2022-09-07T04:59:04.353Z,9.87
2022-09-07T05:01:07.371Z,9.96
2022-09-07T05:03:10.197Z,9.97
2022-09-07T05:05:12.893Z,10.08
2022-09-07T05:07:15.559Z,10.05
2022-09-07T05:09:18.228Z,10.09
2022-09-07T05:11:28.467Z,10.16
2022-09-07T05:13:32.583Z,10.22
2022-09-07T05:15:35.286Z,10.20
2022-09-07T05:17:37.862Z,10.21
2022-09-07T05:19:40.517Z,10.26
2022-09-07T05:21:43.206Z,10.32
2022-09-07T05:23:49.297Z,10.37
2022-09-07T05:25:51.922Z,10.39
2022-09-07T05:27:55.366Z,10.38
2022-09-07T05:30:01.242Z,10.43
2022-09-07T05:32:04.396Z,10.52
2022-09-07T05:36:30.304Z,10.67
2022-09-07T05:38:36.837Z,10.68
2022-09-07T05:40:40.829Z,10.85
2022-09-07T05:42:43.757Z,10.86
2022-09-07T05:44:46.595Z,10.81
2022-09-07T05:46:49.421Z,10.75
2022-09-07T05:48:52.251Z,10.70
2022-09-07T05:50:54.976Z,10.64
2022-09-07T05:52:59.451Z,10.58
2022-09-07T05:55:26.221Z,10.58
2022-09-07T05:57:25.387Z,10.54
2022-09-07T05:59:27.957Z,10.53
2022-09-07T06:01:39.821Z,10.55
2022-09-07T06:03:43.263Z,10.56
2022-09-07T06:05:46.583Z,10.59
2022-09-07T06:07:49.285Z,10.69
2022-09-07T06:12:14.568Z,10.94
2022-09-07T06:14:17.234Z,10.99
2022-09-07T06:16:20.697Z,11.05
2022-09-07T06:18:23.438Z,11.05
2022-09-07T06:20:26.263Z,11.05
2022-09-07T06:22:31.153Z,11.09
2022-09-07T06:24:34.725Z,11.14
2022-09-07T06:26:38.130Z,11.07
2022-09-07T06:28:48.830Z,11.06
2022-09-07T06:30:52.406Z,11.07
2022-09-07T06:32:55.158Z,11.10
2022-09-07T06:34:57.875Z,11.17
2022-09-07T06:37:00.507Z,11.28
2022-09-07T06:39:03.291Z,11.45
2022-09-07T06:43:32.156Z,11.56
2022-09-07T06:45:34.869Z,11.63
2022-09-07T06:47:37.584Z,11.63
2022-09-07T06:49:40.332Z,11.58
2022-09-07T06:51:43.080Z,11.52
2022-09-07T06:53:48.303Z,11.46
2022-09-07T06:55:51.485Z,11.43
2022-09-07T06:57:54.891Z,11.51
2022-09-07T06:59:57.522Z,11.53
2022-09-07T07:02:00.230Z,11.60
2022-09-07T07:04:05.185Z,11.67
2022-09-07T07:06:11.355Z,11.72
2022-09-07T07:08:17.744Z,11.72
2022-09-07T07:10:25.022Z,11.67
2022-09-07T07:14:38.674Z,11.57
2022-09-07T07:16:47.519Z,11.59
2022-09-07T07:19:11.372Z,11.61
2022-09-07T07:23:39.045Z,11.76
2022-09-07T07:25:43.951Z,11.83
2022-09-07T07:27:49.138Z,11.94
2022-09-07T07:29:55.069Z,12.06
2022-09-07T07:31:59.657Z,12.09
2022-09-07T07:34:13.995Z,12.07
2022-09-07T07:36:21.532Z,12.15
2022-09-07T07:43:19.468Z,12.37
2022-09-07T07:47:50.120Z,12.35
2022-09-07T07:50:30.701Z,12.43
2022-09-07T07:54:39.329Z,12.66
2022-09-07T07:56:42.147Z,12.81
2022-09-07T07:58:47.207Z,12.95
2022-09-07T08:00:57.474Z,13.01
2022-09-07T08:03:01.879Z,13.07
2022-09-07T08:05:05.244Z,13.14
2022-09-07T08:07:11.340Z,13.24
2022-09-07T08:09:14.268Z,13.17
2022-09-07T08:11:20.446Z,13.13
2022-09-07T08:13:22.939Z,13.21
2022-09-07T08:15:25.661Z,13.41
2022-09-07T08:17:28.283Z,13.58
2022-09-07T08:19:30.826Z,13.83
2022-09-07T08:21:33.457Z,13.85
2022-09-07T08:23:36.113Z,13.75
2022-09-07T08:25:38.793Z,13.66
2022-09-07T08:27:41.496Z,13.50
2022-09-07T08:29:44.113Z,13.30
2022-09-07T08:31:46.901Z,13.21
2022-09-07T08:33:49.653Z,13.21
2022-09-07T08:36:01.645Z,13.20
2022-09-07T08:38:04.995Z,13.24
2022-09-07T08:40:15.639Z,13.35
2022-09-07T08:42:23.886Z,13.63
2022-09-07T08:44:28.921Z,13.81
2022-09-07T08:46:54.569Z,14.00
2022-09-07T08:49:01.049Z,13.99
2022-09-07T08:51:24.405Z,13.98
2022-09-07T08:53:29.718Z,14.16
2022-09-07T08:55:39.393Z,14.25
2022-09-07T08:57:48.999Z,14.35
2022-09-07T09:00:10.712Z,14.35
2022-09-07T09:02:38.354Z,14.45
2022-09-07T09:07:20.751Z,14.62
2022-09-07T09:09:23.300Z,14.60
2022-09-07T09:11:45.677Z,14.45
2022-09-07T09:14:18.494Z,14.34
2022-09-07T09:16:42.899Z,14.33
2022-09-07T09:19:17.855Z,14.33
2022-09-07T09:21:20.756Z,14.38
2022-09-07T09:23:28.857Z,14.34
2022-09-07T09:25:37.383Z,14.43
2022-09-07T09:27:40.247Z,14.46
2022-09-07T09:29:43.161Z,14.49
2022-09-07T09:31:45.812Z,14.36
2022-09-07T09:34:08.817Z,14.20
2022-09-07T09:36:31.418Z,14.05
2022-09-07T09:38:36.612Z,13.88
2022-09-07T09:40:39.422Z,13.78
2022-09-07T09:42:42.184Z,13.60
2022-09-07T09:44:45.684Z,13.57
2022-09-07T09:49:29.535Z,13.45
2022-09-07T09:54:06.466Z,13.17
2022-09-07T09:56:09.656Z,13.02
2022-09-07T10:01:28.417Z,13.01
2022-09-07T10:05:57.010Z,13.03
2022-09-07T10:07:59.888Z,13.05
2022-09-07T10:10:03.819Z,13.05
2022-09-07T10:12:24.603Z,13.07
2022-09-07T10:14:30.717Z,13.14
2022-09-07T10:16:40.674Z,13.23
2022-09-07T10:19:05.814Z,13.44
2022-09-07T10:21:27.001Z,13.59
2022-09-07T10:23:29.885Z,13.68
2022-09-07T10:25:45.975Z,13.91
2022-09-07T10:28:15.742Z,14.14
2022-09-07T10:30:20.203Z,14.29
2022-09-07T10:32:28.605Z,14.44
2022-09-07T10:34:40.790Z,14.48
2022-09-07T10:37:04.221Z,14.56
2022-09-07T10:39:13.541Z,14.59
2022-09-07T10:41:21.671Z,14.55
2022-09-07T10:43:43.744Z,14.50
2022-09-07T10:46:08.065Z,14.55
2022-09-07T10:48:31.062Z,14.55
2022-09-07T10:50:51.602Z,14.59
2022-09-07T10:53:23.443Z,14.66
2022-09-07T10:55:40.436Z,14.55
2022-09-07T10:57:51.960Z,14.62
2022-09-07T11:00:11.360Z,14.54
2022-09-07T11:02:30.614Z,14.56
2022-09-07T11:05:03.985Z,14.57
2022-09-07T11:07:25.604Z,14.55
2022-09-07T11:09:52.581Z,14.55
2022-09-07T11:12:03.456Z,14.51
2022-09-07T11:14:13.980Z,14.37
2022-09-07T11:18:47.186Z,14.54
2022-09-07T11:20:56.779Z,14.65
2022-09-07T11:23:18.796Z,14.55
2022-09-07T11:25:29.448Z,14.45
2022-09-07T11:28:01.869Z,14.46
2022-09-07T11:30:15.921Z,14.39
2022-09-07T11:32:25.424Z,14.35
2022-09-07T11:35:03.062Z,14.28
2022-09-07T11:37:15.512Z,14.29
2022-09-07T11:39:26.567Z,14.09
2022-09-07T11:41:34.159Z,14.04
2022-09-07T11:43:45.486Z,13.97
2022-09-07T11:46:05.171Z,13.82
2022-09-07T11:48:31.061Z,13.73
2022-09-07T11:50:42.078Z,13.64
2022-09-07T11:53:15.206Z,13.63
2022-09-07T11:55:27.605Z,13.50
2022-09-07T11:57:42.133Z,13.54
2022-09-07T11:59:56.621Z,13.50
2022-09-07T12:02:18.797Z,13.46
2022-09-07T12:04:56.482Z,13.45
2022-09-07T12:07:17.999Z,13.46
2022-09-07T12:09:40.786Z,13.47
2022-09-07T12:12:07.370Z,13.56
2022-09-07T12:14:25.129Z,13.60
2022-09-07T12:17:07.431Z,13.64
2022-09-07T12:19:18.720Z,13.53
2022-09-07T12:21:45.472Z,13.50
2022-09-07T12:23:48.714Z,13.51
2022-09-07T12:25:52.247Z,13.57
2022-09-07T12:27:55.578Z,13.63
2022-09-07T12:29:58.150Z,13.68
2022-09-07T12:34:35.234Z,13.53
2022-09-07T12:36:37.974Z,13.44
2022-09-07T12:39:20.840Z,13.25
2022-09-07T12:41:39.805Z,13.14
2022-09-07T12:43:52.058Z,13.01
2022-09-07T12:45:56.837Z,12.96
2022-09-07T12:48:08.034Z,12.88
2022-09-07T12:50:28.809Z,12.75
2022-09-07T12:52:43.444Z,12.67
2022-09-07T12:55:16.374Z,12.56
2022-09-07T12:57:41.380Z,12.48
2022-09-07T12:59:55.652Z,12.43
2022-09-07T13:02:22.192Z,12.32
2022-09-07T13:04:56.606Z,12.31
2022-09-07T13:07:27.807Z,12.29
2022-09-07T13:09:36.069Z,12.35
2022-09-07T13:11:40.664Z,12.46
2022-09-07T13:14:08.697Z,12.46
2022-09-07T13:16:12.329Z,12.44
2022-09-07T13:18:29.891Z,12.45
2022-09-07T13:20:37.670Z,12.43
2022-09-07T13:22:42.716Z,12.42
2022-09-07T13:24:52.848Z,12.39
2022-09-07T13:26:55.499Z,12.39
2022-09-07T13:29:02.921Z,12.38
2022-09-07T13:31:31.358Z,12.38
2022-09-07T13:33:52.459Z,12.40
2022-09-07T13:35:59.253Z,12.46
2022-09-07T13:38:03.871Z,12.46
2022-09-07T13:40:12.097Z,12.49
2022-09-07T13:42:21.686Z,12.47
2022-09-07T13:44:30.037Z,12.49
2022-09-07T13:46:50.618Z,12.50
2022-09-07T13:49:02.350Z,12.47
2022-09-07T13:51:48.550Z,12.48
2022-09-07T13:54:18.253Z,12.46
2022-09-07T13:56:41.081Z,12.45
2022-09-07T13:58:48.707Z,12.37
2022-09-07T14:01:16.330Z,12.41
2022-09-07T14:03:19.214Z,12.37
2022-09-07T14:05:22.621Z,12.32
2022-09-07T14:07:28.208Z,12.24
2022-09-07T14:09:31.119Z,12.18
2022-09-07T14:11:36.661Z,12.15
2022-09-07T14:13:39.198Z,12.10
2022-09-07T14:15:47.277Z,12.04
2022-09-07T14:18:02.570Z,11.99
2022-09-07T14:20:07.047Z,11.95
2022-09-07T14:22:17.079Z,11.93
2022-09-07T14:24:28.353Z,11.92
2022-09-07T14:26:31.103Z,11.88
2022-09-07T14:28:38.537Z,11.85
2022-09-07T14:30:42.168Z,11.78
2022-09-07T14:32:46.897Z,11.69
2022-09-07T14:34:50.499Z,11.66
2022-09-07T14:36:54.646Z,11.60
2022-09-07T14:39:05.406Z,11.47
2022-09-07T14:41:12.253Z,11.37
2022-09-07T14:43:54.114Z,11.39
2022-09-07T14:46:22.246Z,11.31
2022-09-07T14:48:32.438Z,11.29
2022-09-07T14:50:39.179Z,11.21
2022-09-07T14:53:33.950Z,11.13
2022-09-07T14:55:20.190Z,11.07
2022-09-07T14:57:30.621Z,11.02
2022-09-07T14:59:54.041Z,10.96
2022-09-07T15:02:24.144Z,10.97
2022-09-07T15:04:28.607Z,10.92
2022-09-07T15:07:02.318Z,10.90
2022-09-07T15:09:07.295Z,10.85
2022-09-07T15:11:33.388Z,10.78
2022-09-07T15:13:39.138Z,10.78
2022-09-07T15:15:41.931Z,10.73
2022-09-07T15:17:45.245Z,10.68
2022-09-07T15:19:50.437Z,10.63
2022-09-07T15:21:53.132Z,10.56
2022-09-07T15:23:58.779Z,10.54
2022-09-07T15:26:02.333Z,10.52
2022-09-07T15:28:05.846Z,10.50
2022-09-07T15:30:11.589Z,10.46
2022-09-07T15:32:16.700Z,10.44
2022-09-07T15:34:20.861Z,10.44
2022-09-07T15:36:23.542Z,10.42
2022-09-07T15:41:21.735Z,10.47
2022-09-07T15:43:23.044Z,10.43
2022-09-07T15:45:25.832Z,10.43
2022-09-07T15:47:48.168Z,10.42
2022-09-07T15:49:51.780Z,10.40
2022-09-07T15:52:05.089Z,10.41
2022-09-07T15:54:12.350Z,10.35
2022-09-07T15:56:17.257Z,10.35
2022-09-07T15:58:22.629Z,10.38
2022-09-07T16:00:25.307Z,10.41
2022-09-07T16:04:51.651Z,10.40
2022-09-07T16:06:54.858Z,10.35
2022-09-07T16:08:57.544Z,10.35
2022-09-07T16:11:12.461Z,10.36
2022-09-07T16:13:16.882Z,10.35
2022-09-07T16:15:19.693Z,10.32
2022-09-07T16:17:26.925Z,10.27
2022-09-07T16:19:30.458Z,10.24
2022-09-07T16:21:33.197Z,10.22
2022-09-07T16:23:36.465Z,10.20
2022-09-07T16:25:39.380Z,10.13
2022-09-07T16:27:41.974Z,10.07
2022-09-07T16:29:44.866Z,10.01
2022-09-07T16:34:10.127Z,9.92
2022-09-07T16:36:15.975Z,9.87
2022-09-07T16:40:41.990Z,9.79
2022-09-07T16:42:47.016Z,9.73
2022-09-07T16:44:52.170Z,9.70
2022-09-07T16:46:55.464Z,9.68
2022-09-07T16:48:58.350Z,9.67
2022-09-07T16:51:02.817Z,9.67
2022-09-07T16:53:05.527Z,9.64
2022-09-07T16:55:08.461Z,9.59
2022-09-07T16:57:11.112Z,9.51
2022-09-07T16:59:19.817Z,9.47
2022-09-07T17:01:25.619Z,9.42
2022-09-07T17:03:28.469Z,9.36
2022-09-07T17:05:31.437Z,9.37
2022-09-07T17:07:34.737Z,9.37
2022-09-07T17:09:37.582Z,9.34
2022-09-07T17:11:40.912Z,9.32
2022-09-07T17:13:44.073Z,9.32
2022-09-07T17:15:46.749Z,9.34
2022-09-07T17:17:49.421Z,9.27
2022-09-07T17:19:53.134Z,9.28
2022-09-07T17:21:57.696Z,9.32
2022-09-07T17:24:03.819Z,9.27
2022-09-07T17:26:09.932Z,9.27
2022-09-07T17:28:15.226Z,9.28
2022-09-07T17:30:20.753Z,9.26
2022-09-07T17:32:26.322Z,9.15
2022-09-07T17:34:30.565Z,9.22
2022-09-07T17:36:34.574Z,9.27
2022-09-07T17:41:15.031Z,9.26
2022-09-07T17:45:40.923Z,9.32
2022-09-07T17:47:43.595Z,9.21
2022-09-07T17:49:46.431Z,9.26
2022-09-07T17:51:49.138Z,9.27
2022-09-07T17:53:58.767Z,9.28
2022-09-07T17:56:01.744Z,9.26
2022-09-07T17:58:05.434Z,9.24
2022-09-07T18:00:11.400Z,9.08
2022-09-07T18:02:14.739Z,9.26
2022-09-07T18:04:17.501Z,9.24
2022-09-07T18:06:20.986Z,9.21
2022-09-07T18:08:23.965Z,9.22
2022-09-07T18:10:26.661Z,9.22
2022-09-07T18:12:29.749Z,9.20
2022-09-07T18:14:33.786Z,9.21
2022-09-07T18:16:36.585Z,9.23
2022-09-07T18:18:39.907Z,9.24
2022-09-07T18:20:45.031Z,9.24
2022-09-07T18:22:47.729Z,9.20
2022-09-07T18:24:51.988Z,9.24
2022-09-07T18:26:54.787Z,9.19
2022-09-07T18:29:08.409Z,9.14
2022-09-07T18:31:16.188Z,9.16
2022-09-07T18:33:18.924Z,9.16
2022-09-07T18:35:21.590Z,9.13
2022-09-07T18:37:24.266Z,9.15
2022-09-07T18:39:27.875Z,9.14
2022-09-07T18:41:30.581Z,9.14
2022-09-07T18:43:35.461Z,9.16
2022-09-07T18:45:38.091Z,9.12
2022-09-07T18:47:41.000Z,9.17
2022-09-07T18:49:43.673Z,9.16
2022-09-07T18:54:09.086Z,9.16
2022-09-07T18:56:19.529Z,9.18
2022-09-07T18:58:22.163Z,9.21
2022-09-07T19:00:24.839Z,9.13
2022-09-07T19:02:27.505Z,9.11
2022-09-07T19:06:53.867Z,9.12
2022-09-07T19:08:56.871Z,9.07
2022-09-07T19:11:09.968Z,9.06
2022-09-07T19:13:12.666Z,9.01
2022-09-07T19:15:15.442Z,9.05
2022-09-07T19:17:18.138Z,9.05
2022-09-07T19:19:22.029Z,9.08
2022-09-07T19:21:27.414Z,9.08
2022-09-07T19:23:30.223Z,9.03
2022-09-07T19:25:33.170Z,9.07
2022-09-07T19:27:35.836Z,9.08
2022-09-07T19:29:38.385Z,9.07
2022-09-07T19:31:42.782Z,9.07
2022-09-07T19:33:45.621Z,9.08
2022-09-07T19:35:48.516Z,9.08
2022-09-07T19:37:51.154Z,9.02
2022-09-07T19:39:56.955Z,9.03
2022-09-07T19:42:00.395Z,9.02
2022-09-07T19:44:03.164Z,9.03
2022-09-07T19:46:05.914Z,9.01
2022-09-07T19:48:08.606Z,9.03
2022-09-07T19:50:11.359Z,9.03
2022-09-07T19:52:14.075Z,9.00
2022-09-07T19:54:16.745Z,9.03
2022-09-07T19:56:24.242Z,9.02
2022-09-07T19:58:26.818Z,9.02
2022-09-07T20:00:29.592Z,9.03
2022-09-07T20:02:32.281Z,9.09
2022-09-07T20:04:35.980Z,9.10
2022-09-07T20:06:39.726Z,9.06
2022-09-07T20:08:43.503Z,9.08
2022-09-07T20:10:46.071Z,9.01
2022-09-07T20:12:48.757Z,9.06
2022-09-07T20:14:51.777Z,9.08
2022-09-07T20:16:54.909Z,9.08
2022-09-07T20:18:58.841Z,9.08
2022-09-07T20:21:06.770Z,9.15
2022-09-07T20:23:09.433Z,9.12
2022-09-07T20:25:13.365Z,9.15
2022-09-07T20:27:16.923Z,9.15
2022-09-07T20:29:28.684Z,9.16
2022-09-07T20:31:32.071Z,9.16
2022-09-07T20:33:35.799Z,9.15
2022-09-07T20:35:38.709Z,9.10
2022-09-07T20:37:41.415Z,9.12
2022-09-07T20:39:44.069Z,9.03
2022-09-07T20:41:47.327Z,9.05
2022-09-07T20:43:51.041Z,9.07
2022-09-07T20:45:58.452Z,9.08
2022-09-07T20:48:01.067Z,9.09
2022-09-07T20:50:03.783Z,9.12
2022-09-07T20:52:06.383Z,9.14
2022-09-07T20:54:09.036Z,9.09
2022-09-07T20:56:15.743Z,9.14
2022-09-07T20:58:18.474Z,9.14
2022-09-07T21:00:21.150Z,9.15
2022-09-07T21:02:23.960Z,9.12
2022-09-07T21:04:27.636Z,9.09
2022-09-07T21:06:31.420Z,9.10
2022-09-07T21:08:39.231Z,8.88
2022-09-07T21:10:43.542Z,9.04
2022-09-07T21:12:46.298Z,9.05
2022-09-07T21:14:49.046Z,9.06
2022-09-07T21:16:51.623Z,9.04
2022-09-07T21:18:57.016Z,9.03
2022-09-07T21:21:20.129Z,9.04
2022-09-07T21:23:24.485Z,8.99
2022-09-07T21:25:27.279Z,8.97
2022-09-07T21:27:38.133Z,8.94
2022-09-07T21:29:41.089Z,8.92
2022-09-07T21:31:43.858Z,8.95
2022-09-07T21:33:46.599Z,8.87
2022-09-07T21:35:49.196Z,8.94
2022-09-07T21:37:52.859Z,8.93
2022-09-07T21:39:55.562Z,8.92
2022-09-07T21:41:58.129Z,8.89
2022-09-07T21:44:02.550Z,8.87
2022-09-07T21:46:16.758Z,8.84
2022-09-07T21:48:19.495Z,8.81
2022-09-07T21:50:22.131Z,8.78
2022-09-07T21:52:24.780Z,8.75
2022-09-07T21:54:27.351Z,8.77
2022-09-07T21:56:31.417Z,8.73
2022-09-07T21:58:34.407Z,8.76
2022-09-07T22:00:38.984Z,8.75
2022-09-07T22:02:41.715Z,8.79
2022-09-07T22:04:44.298Z,8.80
2022-09-07T22:06:46.915Z,8.81
2022-09-07T22:08:50.113Z,8.79
2022-09-07T22:10:52.653Z,8.75
2022-09-07T22:12:55.612Z,8.81
2022-09-07T22:14:58.399Z,8.78
2022-09-07T22:17:01.018Z,8.73
2022-09-07T22:19:04.509Z,8.83
2022-09-07T22:21:15.969Z,8.80
2022-09-07T22:23:18.545Z,8.81
2022-09-07T22:25:21.107Z,8.78
2022-09-07T22:27:23.829Z,8.78
2022-09-07T22:29:26.507Z,8.75
2022-09-07T22:31:31.967Z,8.79
2022-09-07T22:33:34.740Z,8.80
2022-09-07T22:35:37.446Z,8.84
2022-09-07T22:37:40.082Z,8.82
2022-09-07T22:39:42.753Z,8.83
2022-09-07T22:41:47.281Z,8.83
2022-09-07T22:43:53.129Z,8.85
2022-09-07T22:45:55.702Z,8.84
2022-09-07T22:47:58.253Z,8.76
2022-09-07T22:50:00.872Z,8.79
2022-09-07T22:52:03.484Z,8.79
2022-09-07T22:54:06.177Z,8.77
2022-09-07T22:56:12.106Z,8.75
2022-09-07T22:58:14.743Z,8.59
2022-09-07T23:00:17.569Z,8.71
2022-09-07T23:02:20.247Z,8.64
2022-09-07T23:04:23.073Z,8.65
2022-09-07T23:06:25.748Z,8.63
2022-09-07T23:08:28.911Z,8.65
2022-09-07T23:10:35.369Z,8.62
2022-09-07T23:12:38.022Z,8.65
2022-09-07T23:14:40.754Z,8.64
2022-09-07T23:16:44.125Z,8.62
2022-09-07T23:18:46.992Z,8.59
2022-09-07T23:20:49.573Z,8.59
2022-09-07T23:22:53.210Z,8.57
2022-09-07T23:24:55.872Z,8.55
2022-09-07T23:26:58.498Z,8.48
2022-09-07T23:29:04.747Z,8.50
2022-09-07T23:31:10.994Z,8.45
2022-09-07T23:33:13.888Z,8.52
2022-09-07T23:35:16.814Z,8.52
2022-09-07T23:37:19.544Z,8.50
2022-09-07T23:39:22.179Z,8.56
2022-09-07T23:41:25.561Z,8.56
2022-09-07T23:43:30.207Z,8.57
2022-09-07T23:45:32.959Z,8.59
2022-09-07T23:47:35.577Z,8.63
2022-09-07T23:49:38.548Z,8.65
2022-09-07T23:51:41.084Z,8.65
2022-09-07T23:53:43.701Z,8.66
2022-09-07T23:55:50.437Z,8.69
2022-09-07T23:57:53.075Z,8.72
2022-09-07T23:59:55.648Z,8.71
